Time;durP1;ratioP1;P1;durP2;ratioP2;P2;SDS_P1;SDS_P2;PMS_P1;PMS_P2;Temp;Humidity;BMP_temperature;BMP_pressure;BME280_temperature;BME280_humidity;BME280_pressure;Samples;Min_cycle;Max_cycle;Signal;HPM_P1;HPM_P2
2023/06/09 00:02:18;;;;;;;4.28;3.97;;;;;;;;;;5067389;28;20234;-63
2023/06/09 00:04:45;;;;;;;4.35;3.95;;;;;;;;;;5088772;28;20237;-63
2023/06/09 00:07:15;;;;;;;4.35;3.97;;;;;;;;;;5107707;28;20205;-63
2023/06/09 00:09:42;;;;;;;4.20;3.90;;;;;;;;;;5095411;28;20202;-63
2023/06/09 00:12:10;;;;;;;4.22;3.90;;;;;;;;;;5087136;28;20210;-63
2023/06/09 00:14:37;;;;;;;4.47;4.18;;;;;;;;;;5088034;28;20248;-63
2023/06/09 00:17:07;;;;;;;5.05;4.25;;;;;;;;;;5091034;28;20214;-62
2023/06/09 00:19:36;;;;;;;4.40;4.10;;;;;;;;;;5086089;28;20744;-64
2023/06/09 00:22:05;;;;;;;4.95;4.50;;;;;;;;;;5086117;28;20234;-62
2023/06/09 00:24:32;;;;;;;5.40;4.28;;;;;;;;;;5086940;28;20202;-63
2023/06/09 00:26:59;;;;;;;4.28;3.97;;;;;;;;;;5090743;28;20222;-63
2023/06/09 00:29:26;;;;;;;4.78;4.28;;;;;;;;;;5089936;28;20560;-63
2023/06/09 00:31:53;;;;;;;4.35;4.13;;;;;;;;;;5088786;28;20211;-63
2023/06/09 00:34:20;;;;;;;5.22;4.72;;;;;;;;;;5087587;28;20214;-63
2023/06/09 00:36:48;;;;;;;3.95;3.65;;;;;;;;;;5087259;28;20567;-62
2023/06/09 00:39:15;;;;;;;5.80;4.75;;;;;;;;;;5090407;28;20217;-63
2023/06/09 00:41:42;;;;;;;4.53;4.13;;;;;;;;;;5089419;28;20210;-63
2023/06/09 00:44:09;;;;;;;4.75;4.35;;;;;;;;;;5088997;28;20694;-63
2023/06/09 00:46:37;;;;;;;5.20;4.70;;;;;;;;;;5090162;28;20241;-63
2023/06/09 00:49:04;;;;;;;5.68;4.13;;;;;;;;;;5082741;28;20294;-63
2023/06/09 00:51:32;;;;;;;4.68;4.30;;;;;;;;;;5078748;28;20215;-63
2023/06/09 00:54:01;;;;;;;5.15;4.65;;;;;;;;;;5088909;28;20617;-63
2023/06/09 00:56:29;;;;;;;4.43;4.13;;;;;;;;;;5089877;28;20214;-62
2023/06/09 00:58:56;;;;;;;4.30;4.00;;;;;;;;;;5088279;28;20214;-63
2023/06/09 01:01:23;;;;;;;4.55;4.15;;;;;;;;;;5086430;28;20225;-63
2023/06/09 01:03:50;;;;;;;4.80;4.20;;;;;;;;;;5090142;28;20233;-63
2023/06/09 01:06:26;;;;;;;4.70;4.20;;;;;;;;;;5088829;28;20210;-63
2023/06/09 01:08:56;;;;;;;4.07;3.88;;;;;;;;;;5088704;28;20206;-64
2023/06/09 01:11:31;;;;;;;4.35;4.03;;;;;;;;;;5089124;28;20211;-63
2023/06/09 01:14:03;;;;;;;4.47;4.18;;;;;;;;;;5081279;28;20293;-63
2023/06/09 01:16:42;;;;;;;4.57;4.15;;;;;;;;;;5089344;28;20221;-63
2023/06/09 01:19:11;;;;;;;4.50;4.20;;;;;;;;;;5088252;28;20317;-63
2023/06/09 01:21:44;;;;;;;4.60;4.18;;;;;;;;;;5088524;28;20730;-63
2023/06/09 01:24:16;;;;;;;4.25;3.95;;;;;;;;;;5076748;28;20299;-63
2023/06/09 01:26:45;;;;;;;4.25;3.90;;;;;;;;;;5089255;28;20260;-64
2023/06/09 01:29:14;;;;;;;4.38;3.97;;;;;;;;;;5089461;28;20763;-63
2023/06/09 01:31:41;;;;;;;5.10;4.53;;;;;;;;;;5087816;28;20233;-63
2023/06/09 01:34:08;;;;;;;4.30;4.00;;;;;;;;;;5094604;28;20625;-64
2023/06/09 01:36:35;;;;;;;4.60;4.32;;;;;;;;;;5094970;28;20575;-64
2023/06/09 01:39:02;;;;;;;6.72;4.10;;;;;;;;;;5089329;28;20211;-64
2023/06/09 01:41:29;;;;;;;4.25;3.95;;;;;;;;;;5089180;28;20210;-64
2023/06/09 01:43:58;;;;;;;4.43;4.03;;;;;;;;;;5087548;28;20246;-63
2023/06/09 01:46:25;;;;;;;4.68;4.28;;;;;;;;;;5071316;28;20210;-64
2023/06/09 01:48:58;;;;;;;5.38;3.92;;;;;;;;;;5069142;28;20551;-63
2023/06/09 01:51:28;;;;;;;4.65;4.25;;;;;;;;;;5089338;28;20428;-64
2023/06/09 01:53:57;;;;;;;5.40;4.80;;;;;;;;;;5088090;28;20280;-63
2023/06/09 01:56:29;;;;;;;4.45;4.05;;;;;;;;;;5088613;28;20217;-63
2023/06/09 01:58:59;;;;;;;5.22;4.22;;;;;;;;;;5089021;28;20646;-64
2023/06/09 02:01:27;;;;;;;4.43;4.13;;;;;;;;;;5088924;28;20688;-63
2023/06/09 02:03:56;;;;;;;4.25;3.75;;;;;;;;;;5091698;28;20781;-63
2023/06/09 02:06:23;;;;;;;5.43;4.80;;;;;;;;;;5102230;28;20659;-63
2023/06/09 02:08:50;;;;;;;7.25;4.43;;;;;;;;;;5088768;28;20669;-63
2023/06/09 02:11:17;;;;;;;4.45;4.13;;;;;;;;;;5088736;28;20210;-63
2023/06/09 02:13:44;;;;;;;4.72;4.32;;;;;;;;;;5087164;28;20211;-63
2023/06/09 02:16:14;;;;;;;3.97;3.67;;;;;;;;;;5088372;28;20218;-63
2023/06/09 02:18:43;;;;;;;4.63;4.25;;;;;;;;;;5088500;28;20653;-63
2023/06/09 02:21:10;;;;;;;4.40;4.10;;;;;;;;;;5088369;28;20230;-63
2023/06/09 02:23:39;;;;;;;4.35;3.95;;;;;;;;;;5087387;28;20680;-63
2023/06/09 02:26:06;;;;;;;4.07;3.83;;;;;;;;;;5088305;28;20625;-63
2023/06/09 02:28:33;;;;;;;4.75;4.35;;;;;;;;;;5088478;28;20301;-64
2023/06/09 02:31:00;;;;;;;4.45;4.05;;;;;;;;;;5086411;28;20210;-64
2023/06/09 02:33:29;;;;;;;4.30;3.92;;;;;;;;;;5087298;28;20210;-63
2023/06/09 02:35:56;;;;;;;4.07;3.78;;;;;;;;;;5088264;28;20744;-63
2023/06/09 02:38:24;;;;;;;4.57;4.28;;;;;;;;;;5087782;28;20209;-63
2023/06/09 02:40:51;;;;;;;4.80;4.50;;;;;;;;;;5081637;28;20254;-63
2023/06/09 02:43:18;;;;;;;4.20;3.85;;;;;;;;;;5074922;28;20234;-63
2023/06/09 02:45:46;;;;;;;4.22;3.92;;;;;;;;;;5079717;28;20210;-63
2023/06/09 02:48:14;;;;;;;4.35;4.05;;;;;;;;;;5067575;28;20696;-64
2023/06/09 02:50:43;;;;;;;3.97;3.70;;;;;;;;;;5067758;28;20203;-63
2023/06/09 02:53:10;;;;;;;4.45;4.13;;;;;;;;;;5072452;28;20206;-64
2023/06/09 02:55:38;;;;;;;5.35;4.53;;;;;;;;;;5087922;28;20867;-63
2023/06/09 02:58:05;;;;;;;4.93;3.90;;;;;;;;;;5088133;28;20202;-64
2023/06/09 03:00:32;;;;;;;4.18;3.78;;;;;;;;;;5088119;28;20267;-63
2023/06/09 03:03:01;;;;;;;4.68;4.28;;;;;;;;;;5082286;28;20251;-63
2023/06/09 03:05:28;;;;;;;5.13;4.72;;;;;;;;;;5101384;28;20210;-64
2023/06/09 03:07:57;;;;;;;3.97;3.67;;;;;;;;;;5108114;28;20508;-64
2023/06/09 03:10:25;;;;;;;4.43;4.13;;;;;;;;;;5087628;28;20301;-63
2023/06/09 03:12:52;;;;;;;4.88;4.47;;;;;;;;;;5086821;28;20669;-64
2023/06/09 03:15:19;;;;;;;4.55;4.10;;;;;;;;;;5087720;28;20271;-64
2023/06/09 03:17:47;;;;;;;4.85;4.53;;;;;;;;;;5087378;28;20210;-63
2023/06/09 03:20:15;;;;;;;5.47;4.95;;;;;;;;;;5086866;28;20210;-63
2023/06/09 03:22:42;;;;;;;5.35;4.20;;;;;;;;;;5087743;28;20234;-64
2023/06/09 03:25:11;;;;;;;4.68;4.35;;;;;;;;;;5086427;28;20210;-63
2023/06/09 03:27:38;;;;;;;4.85;4.32;;;;;;;;;;5067716;28;20213;-63
2023/06/09 03:30:06;;;;;;;4.68;4.28;;;;;;;;;;5067226;28;20866;-63
2023/06/09 03:32:33;;;;;;;4.57;4.18;;;;;;;;;;5067567;28;20830;-63
2023/06/09 03:35:00;;;;;;;4.75;4.35;;;;;;;;;;5081292;28;20207;-63
2023/06/09 03:37:27;;;;;;;4.82;4.43;;;;;;;;;;5086319;28;20210;-63
2023/06/09 03:39:54;;;;;;;4.32;4.03;;;;;;;;;;5087279;28;20218;-63
2023/06/09 03:42:22;;;;;;;4.28;4.00;;;;;;;;;;5087274;28;20238;-63
2023/06/09 03:44:55;;;;;;;4.93;4.43;;;;;;;;;;5086589;28;20226;-63
2023/06/09 03:47:22;;;;;;;4.32;4.03;;;;;;;;;;5087208;28;20234;-63
2023/06/09 03:49:49;;;;;;;4.47;3.95;;;;;;;;;;5088902;28;20210;-64
2023/06/09 03:52:16;;;;;;;4.07;3.88;;;;;;;;;;5091653;28;20213;-63
2023/06/09 03:54:43;;;;;;;6.72;4.13;;;;;;;;;;5091142;28;20206;-63
2023/06/09 03:57:10;;;;;;;4.13;3.83;;;;;;;;;;5091230;28;20210;-63
2023/06/09 03:59:39;;;;;;;4.70;4.30;;;;;;;;;;5091480;28;20293;-64
2023/06/09 04:02:06;;;;;;;6.10;4.68;;;;;;;;;;5090781;28;20684;-63
2023/06/09 04:04:33;;;;;;;4.03;3.75;;;;;;;;;;5084351;28;20751;-63
2023/06/09 04:07:00;;;;;;;4.20;3.85;;;;;;;;;;5070636;28;20222;-63
2023/06/09 04:09:27;;;;;;;4.72;4.35;;;;;;;;;;5075048;28;20202;-63
2023/06/09 04:11:54;;;;;;;3.95;3.65;;;;;;;;;;5091953;28;20244;-63
2023/06/09 04:14:21;;;;;;;4.80;4.22;;;;;;;;;;5090947;28;20213;-63
2023/06/09 04:16:50;;;;;;;4.70;4.30;;;;;;;;;;5091723;28;20669;-63
2023/06/09 04:19:17;;;;;;;4.22;3.83;;;;;;;;;;5091716;28;20244;-63
2023/06/09 04:21:45;;;;;;;4.22;3.83;;;;;;;;;;5091442;28;20241;-63
2023/06/09 04:24:14;;;;;;;4.82;3.75;;;;;;;;;;5090673;28;20226;-63
2023/06/09 04:26:41;;;;;;;3.55;3.25;;;;;;;;;;5091051;28;20539;-63
2023/06/09 04:29:09;;;;;;;3.63;3.35;;;;;;;;;;5091461;28;20210;-63
2023/06/09 04:31:36;;;;;;;3.65;3.35;;;;;;;;;;5089814;28;20206;-63
2023/06/09 04:34:10;;;;;;;3.63;3.40;;;;;;;;;;5090232;28;20610;-63
2023/06/09 04:36:38;;;;;;;4.70;4.03;;;;;;;;;;5090479;28;20218;-63
2023/06/09 04:39:07;;;;;;;3.85;3.55;;;;;;;;;;5072583;28;20207;-63
2023/06/09 04:41:34;;;;;;;5.32;3.80;;;;;;;;;;5070962;28;20210;-63
2023/06/09 04:44:04;;;;;;;4.63;3.78;;;;;;;;;;5070926;28;20249;-64
2023/06/09 04:46:31;;;;;;;3.63;3.28;;;;;;;;;;5088637;28;20261;-63
2023/06/09 04:48:58;;;;;;;4.22;3.80;;;;;;;;;;5089911;28;20218;-64
2023/06/09 04:51:28;;;;;;;4.18;3.88;;;;;;;;;;5089779;28;20210;-64
2023/06/09 04:53:55;;;;;;;3.75;3.50;;;;;;;;;;5088983;28;20805;-63
2023/06/09 04:56:23;;;;;;;3.63;3.28;;;;;;;;;;5090050;28;20688;-63
2023/06/09 04:58:50;;;;;;;3.60;3.33;;;;;;;;;;5085352;28;20210;-63
2023/06/09 05:01:17;;;;;;;3.95;3.60;;;;;;;;;;5081574;28;20599;-64
2023/06/09 05:03:45;;;;;;;4.30;4.00;;;;;;;;;;5091930;28;20234;-63
2023/06/09 05:06:12;;;;;;;3.75;3.55;;;;;;;;;;5091352;28;20233;-63
2023/06/09 05:08:42;;;;;;;3.50;3.20;;;;;;;;;;5088919;28;20292;-63
2023/06/09 05:11:09;;;;;;;3.97;3.75;;;;;;;;;;5089523;28;20918;-64
2023/06/09 05:13:36;;;;;;;3.30;3.10;;;;;;;;;;5089697;28;20210;-63
2023/06/09 05:16:04;;;;;;;4.00;3.70;;;;;;;;;;5088783;28;20263;-63
2023/06/09 05:18:31;;;;;;;3.42;3.22;;;;;;;;;;5089120;28;20214;-63
2023/06/09 05:20:58;;;;;;;3.53;3.40;;;;;;;;;;5089363;28;20230;-63
2023/06/09 05:23:25;;;;;;;4.18;3.88;;;;;;;;;;5074404;28;20218;-63
2023/06/09 05:25:53;;;;;;;3.88;3.63;;;;;;;;;;5079872;28;20214;-62
2023/06/09 05:28:21;;;;;;;3.70;3.50;;;;;;;;;;5088774;28;20249;-62
2023/06/09 05:30:48;;;;;;;3.40;3.20;;;;;;;;;;5089465;28;20242;-62
2023/06/09 05:33:15;;;;;;;3.42;3.22;;;;;;;;;;5088259;28;20214;-62
2023/06/09 05:35:42;;;;;;;3.53;3.28;;;;;;;;;;5098301;28;20206;-62
2023/06/09 05:38:09;;;;;;;3.10;3.00;;;;;;;;;;5089681;28;20217;-63
2023/06/09 05:40:36;;;;;;;3.60;3.30;;;;;;;;;;5089586;28;20213;-63
2023/06/09 05:43:04;;;;;;;3.38;3.17;;;;;;;;;;5052738;28;1030835;-63
2023/06/09 05:45:31;;;;;;;3.45;3.25;;;;;;;;;;5090415;28;20230;-62
2023/06/09 05:47:58;;;;;;;3.00;2.90;;;;;;;;;;5090150;28;20206;-63
2023/06/09 05:50:25;;;;;;;3.08;2.85;;;;;;;;;;5090109;28;20645;-63
2023/06/09 05:52:52;;;;;;;3.17;3.00;;;;;;;;;;5089167;28;20579;-62
2023/06/09 05:55:19;;;;;;;2.97;2.88;;;;;;;;;;5084501;28;20214;-63
2023/06/09 05:57:47;;;;;;;2.85;2.65;;;;;;;;;;5069498;28;20203;-62
2023/06/09 06:00:15;;;;;;;3.10;3.00;;;;;;;;;;5077037;28;20613;-62
2023/06/09 06:02:44;;;;;;;3.03;2.92;;;;;;;;;;5088441;28;20217;-62
2023/06/09 06:05:12;;;;;;;3.35;3.05;;;;;;;;;;5104319;28;20326;-63
2023/06/09 06:07:40;;;;;;;2.83;2.72;;;;;;;;;;5109927;28;20248;-63
2023/06/09 06:10:07;;;;;;;3.30;3.10;;;;;;;;;;5085893;28;20206;-62
2023/06/09 06:12:34;;;;;;;2.95;2.83;;;;;;;;;;5087287;28;20213;-61
2023/06/09 06:15:02;;;;;;;4.18;3.13;;;;;;;;;;5070079;28;20214;-63
2023/06/09 06:17:30;;;;;;;2.65;2.55;;;;;;;;;;5075955;28;20206;-62
2023/06/09 06:19:57;;;;;;;2.95;2.75;;;;;;;;;;5089430;28;20237;-62
2023/06/09 06:22:24;;;;;;;3.03;2.83;;;;;;;;;;5089389;28;20950;-63
2023/06/09 06:24:51;;;;;;;2.92;2.83;;;;;;;;;;5087140;28;20303;-63
2023/06/09 06:27:18;;;;;;;2.90;2.80;;;;;;;;;;5085546;28;20203;-63
2023/06/09 06:29:45;;;;;;;3.05;2.95;;;;;;;;;;5085723;28;20301;-63
2023/06/09 06:32:12;;;;;;;3.17;2.97;;;;;;;;;;5088858;28;20259;-63
2023/06/09 06:34:41;;;;;;;3.03;2.83;;;;;;;;;;5088080;28;20268;-61
2023/06/09 06:37:08;;;;;;;2.80;2.70;;;;;;;;;;5087912;28;20202;-61
2023/06/09 06:39:35;;;;;;;3.47;3.17;;;;;;;;;;5088909;28;20206;-61
2023/06/09 06:42:02;;;;;;;3.08;2.90;;;;;;;;;;5088049;28;20202;-61
2023/06/09 06:44:29;;;;;;;3.05;2.85;;;;;;;;;;5087535;28;20230;-61
2023/06/09 06:46:56;;;;;;;3.20;3.05;;;;;;;;;;5077922;28;20214;-61
2023/06/09 06:49:23;;;;;;;2.90;2.67;;;;;;;;;;5067762;28;20219;-61
2023/06/09 06:51:51;;;;;;;2.63;2.53;;;;;;;;;;5069270;28;20616;-61
2023/06/09 06:54:18;;;;;;;2.70;2.50;;;;;;;;;;5081517;28;20209;-61
2023/06/09 06:56:45;;;;;;;2.80;2.65;;;;;;;;;;5076419;28;20194;-61
2023/06/09 06:59:12;;;;;;;2.83;2.60;;;;;;;;;;5086899;28;20206;-61
2023/06/09 07:01:40;;;;;;;4.05;2.67;;;;;;;;;;5087696;28;20210;-61
2023/06/09 07:04:07;;;;;;;2.78;2.67;;;;;;;;;;5086760;28;20226;-61
2023/06/09 07:06:34;;;;;;;2.78;2.67;;;;;;;;;;5085688;28;20953;-61
2023/06/09 07:09:03;;;;;;;2.70;2.60;;;;;;;;;;5071889;28;20677;-61
2023/06/09 07:11:32;;;;;;;3.22;3.03;;;;;;;;;;5067627;28;20238;-61
2023/06/09 07:13:59;;;;;;;2.83;2.63;;;;;;;;;;5084759;28;20202;-61
2023/06/09 07:16:26;;;;;;;3.50;3.20;;;;;;;;;;5087908;28;20213;-62
2023/06/09 07:18:53;;;;;;;2.78;2.58;;;;;;;;;;5079373;28;20332;-61
2023/06/09 07:21:20;;;;;;;3.15;2.88;;;;;;;;;;5067291;28;20273;-61
2023/06/09 07:23:47;;;;;;;2.70;2.58;;;;;;;;;;5072837;28;20206;-61
2023/06/09 07:26:16;;;;;;;2.65;2.55;;;;;;;;;;5087297;28;20206;-61
2023/06/09 07:28:43;;;;;;;3.22;3.03;;;;;;;;;;5086440;28;20565;-61
2023/06/09 07:31:11;;;;;;;2.70;2.60;;;;;;;;;;5087374;28;20221;-61
2023/06/09 07:33:40;;;;;;;2.60;2.42;;;;;;;;;;5087070;28;20211;-61
2023/06/09 07:36:10;;;;;;;3.10;2.80;;;;;;;;;;5071641;28;20213;-61
2023/06/09 07:38:37;;;;;;;2.78;2.67;;;;;;;;;;5087223;28;20218;-61
2023/06/09 07:41:04;;;;;;;2.72;2.50;;;;;;;;;;5087472;28;20246;-62
2023/06/09 07:43:33;;;;;;;3.30;3.10;;;;;;;;;;5085446;28;20230;-62
2023/06/09 07:46:00;;;;;;;2.80;2.70;;;;;;;;;;5082110;28;20238;-62
2023/06/09 07:48:27;;;;;;;2.53;2.42;;;;;;;;;;5083409;28;20202;-62
2023/06/09 07:50:54;;;;;;;6.43;2.70;;;;;;;;;;5086548;28;20293;-62
2023/06/09 07:53:30;;;;;;;3.03;2.88;;;;;;;;;;5087253;28;20210;-62
2023/06/09 07:55:57;;;;;;;2.65;2.55;;;;;;;;;;5073659;28;20210;-62
2023/06/09 07:58:24;;;;;;;2.55;2.35;;;;;;;;;;5067058;28;20214;-61
2023/06/09 08:00:52;;;;;;;2.30;2.20;;;;;;;;;;5066964;28;20222;-62
2023/06/09 08:03:19;;;;;;;2.30;2.20;;;;;;;;;;5067961;28;20730;-61
2023/06/09 08:05:46;;;;;;;2.10;2.10;;;;;;;;;;5085488;28;20233;-62
2023/06/09 08:08:13;;;;;;;3.08;2.92;;;;;;;;;;5087016;28;20218;-63
2023/06/09 08:10:40;;;;;;;2.42;2.33;;;;;;;;;;5087129;28;20217;-63
2023/06/09 08:13:08;;;;;;;2.70;2.60;;;;;;;;;;5086175;28;20268;-63
2023/06/09 08:15:36;;;;;;;2.45;2.35;;;;;;;;;;5071228;28;20221;-62
2023/06/09 08:18:04;;;;;;;2.60;2.50;;;;;;;;;;5078208;28;20567;-64
2023/06/09 08:20:32;;;;;;;3.00;2.80;;;;;;;;;;5076154;28;20910;-62
2023/06/09 08:22:59;;;;;;;2.42;2.30;;;;;;;;;;5066509;28;20218;-63
2023/06/09 08:25:26;;;;;;;2.40;2.30;;;;;;;;;;5077146;28;20234;-63
2023/06/09 08:27:53;;;;;;;2.53;2.42;;;;;;;;;;5066465;28;20222;-63
2023/06/09 08:30:23;;;;;;;2.65;2.53;;;;;;;;;;5066780;28;20211;-66
2023/06/09 08:32:51;;;;;;;2.53;2.42;;;;;;;;;;5066759;28;20211;-63
2023/06/09 08:35:20;;;;;;;3.00;2.90;;;;;;;;;;5076670;28;20203;-64
2023/06/09 08:37:48;;;;;;;2.80;2.70;;;;;;;;;;5087716;28;20672;-64
2023/06/09 08:40:15;;;;;;;2.95;2.85;;;;;;;;;;5090423;28;20297;-64
2023/06/09 08:42:44;;;;;;;2.40;2.30;;;;;;;;;;5089149;28;20287;-63
2023/06/09 08:45:11;;;;;;;2.70;2.55;;;;;;;;;;5089518;28;20603;-63
2023/06/09 08:47:39;;;;;;;2.83;2.63;;;;;;;;;;5090274;28;20628;-63
2023/06/09 08:50:10;;;;;;;2.47;2.38;;;;;;;;;;5090336;28;20245;-64
2023/06/09 08:52:39;;;;;;;2.63;2.53;;;;;;;;;;5090245;28;20210;-64
2023/06/09 08:55:08;;;;;;;3.03;2.83;;;;;;;;;;5089198;28;20656;-64
2023/06/09 08:57:35;;;;;;;2.25;2.15;;;;;;;;;;5087152;28;20225;-64
2023/06/09 09:00:08;;;;;;;2.47;2.38;;;;;;;;;;5076330;28;20234;-64
2023/06/09 09:02:35;;;;;;;2.22;2.17;;;;;;;;;;5076603;28;20207;-64
2023/06/09 09:05:02;;;;;;;2.08;1.98;;;;;;;;;;5086030;28;20226;-64
2023/06/09 09:07:30;;;;;;;2.40;2.30;;;;;;;;;;5079017;28;20210;-64
2023/06/09 09:09:59;;;;;;;2.10;2.00;;;;;;;;;;5072358;28;20226;-63
2023/06/09 09:12:26;;;;;;;1.63;1.60;;;;;;;;;;5086444;28;20237;-64
2023/06/09 09:14:53;;;;;;;2.25;2.15;;;;;;;;;;5085105;28;20202;-70
2023/06/09 09:17:20;;;;;;;2.58;2.58;;;;;;;;;;5085380;28;20225;-63
2023/06/09 09:19:48;;;;;;;2.10;2.10;;;;;;;;;;5082643;28;20229;-65
2023/06/09 09:22:16;;;;;;;2.63;2.53;;;;;;;;;;5079948;28;20337;-63
2023/06/09 09:24:45;;;;;;;2.53;2.42;;;;;;;;;;5078671;28;20243;-59
2023/06/09 09:27:21;;;;;;;1.98;1.95;;;;;;;;;;5089062;28;20264;-59
2023/06/09 09:29:48;;;;;;;2.75;2.50;;;;;;;;;;5071287;28;20225;-59
2023/06/09 09:32:16;;;;;;;2.70;2.60;;;;;;;;;;5080380;28;20683;-61
2023/06/09 09:34:44;;;;;;;1.83;1.73;;;;;;;;;;5091446;28;20202;-60
2023/06/09 09:37:12;;;;;;;2.28;2.17;;;;;;;;;;5088557;28;20202;-63
2023/06/09 09:39:49;;;;;;;2.65;2.47;;;;;;;;;;5085360;28;20332;-63
2023/06/09 09:42:16;;;;;;;2.42;2.30;;;;;;;;;;5075003;28;20272;-62
2023/06/09 09:44:46;;;;;;;2.13;2.13;;;;;;;;;;5073595;28;20199;-62
2023/06/09 09:47:14;;;;;;;2.65;2.47;;;;;;;;;;5080950;28;20629;-62
2023/06/09 09:49:50;;;;;;;2.78;2.58;;;;;;;;;;5086606;28;20207;-63
2023/06/09 09:52:17;;;;;;;2.67;2.53;;;;;;;;;;5073059;28;20198;-63
2023/06/09 09:54:44;;;;;;;2.40;2.30;;;;;;;;;;5081262;28;20202;-61
2023/06/09 09:57:12;;;;;;;2.85;2.65;;;;;;;;;;5083363;28;20281;-62
2023/06/09 09:59:39;;;;;;;2.35;2.35;;;;;;;;;;5069469;28;20264;-62
2023/06/09 10:02:08;;;;;;;2.50;2.40;;;;;;;;;;5078076;28;20231;-62
2023/06/09 10:04:36;;;;;;;2.58;2.47;;;;;;;;;;5081565;28;20306;-62
2023/06/09 10:07:03;;;;;;;2.53;2.40;;;;;;;;;;5074009;28;20309;-62
2023/06/09 10:09:31;;;;;;;2.83;2.63;;;;;;;;;;5086267;28;20829;-61
2023/06/09 10:11:58;;;;;;;3.17;2.97;;;;;;;;;;5087055;28;20553;-61
2023/06/09 10:14:25;;;;;;;2.85;2.75;;;;;;;;;;5082518;28;20214;-62
2023/06/09 10:16:54;;;;;;;16.63;8.18;;;;;;;;;;5086907;28;20207;-61
2023/06/09 10:19:23;;;;;;;2.20;2.20;;;;;;;;;;5086007;28;20207;-61
2023/06/09 10:21:51;;;;;;;11.25;7.22;;;;;;;;;;5086114;28;20333;-59
2023/06/09 10:24:19;;;;;;;2.67;2.58;;;;;;;;;;5087081;28;20257;-62
2023/06/09 10:26:47;;;;;;;2.47;2.38;;;;;;;;;;5086351;28;20226;-62
2023/06/09 10:29:15;;;;;;;2.40;2.30;;;;;;;;;;5082448;28;20214;-62
2023/06/09 10:31:43;;;;;;;2.60;2.50;;;;;;;;;;5070813;28;20202;-62
2023/06/09 10:34:11;;;;;;;2.25;2.17;;;;;;;;;;5084331;28;20202;-62
2023/06/09 10:36:40;;;;;;;2.50;2.40;;;;;;;;;;5082356;28;20199;-62
2023/06/09 10:39:16;;;;;;;2.33;2.15;;;;;;;;;;5087588;28;20293;-62
2023/06/09 10:41:45;;;;;;;3.15;2.85;;;;;;;;;;5087851;28;20202;-62
2023/06/09 10:44:21;;;;;;;2.30;2.20;;;;;;;;;;5083062;28;20234;-63
2023/06/09 10:46:50;;;;;;;2.80;2.70;;;;;;;;;;5070849;28;20222;-64
2023/06/09 10:49:39;;;;;;;4.68;2.78;;;;;;;;;;5082892;28;20203;-62
2023/06/09 10:52:08;;;;;;;1.90;1.80;;;;;;;;;;5084186;28;20816;-61
2023/06/09 10:54:36;;;;;;;2.60;2.50;;;;;;;;;;5082303;28;20198;-62
2023/06/09 10:57:04;;;;;;;2.65;2.55;;;;;;;;;;5071851;28;20195;-62
2023/06/09 11:00:09;;;;;;;2.58;2.47;;;;;;;;;;5075494;28;20210;-62
2023/06/09 11:02:37;;;;;;;2.45;2.10;;;;;;;;;;5072388;28;20300;-62
2023/06/09 11:05:04;;;;;;;2.33;2.22;;;;;;;;;;5093750;28;20225;-62
2023/06/09 11:07:40;;;;;;;2.03;1.98;;;;;;;;;;5098770;28;20214;-62
2023/06/09 11:10:28;;;;;;;2.20;2.10;;;;;;;;;;5075071;28;20583;-63
2023/06/09 11:12:55;;;;;;;2.50;2.40;;;;;;;;;;5073847;28;20207;-63
2023/06/09 11:15:23;;;;;;;1.83;1.83;;;;;;;;;;5068354;28;20206;-62
2023/06/09 11:17:51;;;;;;;1.35;1.35;;;;;;;;;;5066876;28;20206;-62
2023/06/09 11:20:19;;;;;;;1.67;1.67;;;;;;;;;;5079462;28;20321;-63
2023/06/09 11:23:00;;;;;;;1.90;1.85;;;;;;;;;;5079292;28;20226;-63
2023/06/09 11:25:35;;;;;;;2.20;2.10;;;;;;;;;;5074815;28;20238;-63
2023/06/09 11:28:18;;;;;;;2.20;2.17;;;;;;;;;;5069308;28;20257;-64
2023/06/09 11:31:00;;;;;;;2.10;2.10;;;;;;;;;;5080733;28;20656;-64
2023/06/09 11:33:40;;;;;;;2.00;1.90;;;;;;;;;;5076666;28;20717;-64
2023/06/09 11:36:07;;;;;;;1.58;1.58;;;;;;;;;;5071273;28;20242;-63
2023/06/09 11:38:36;;;;;;;1.83;1.83;;;;;;;;;;5069996;28;20210;-64
2023/06/09 11:41:04;;;;;;;1.80;1.80;;;;;;;;;;5083279;28;20206;-63
2023/06/09 11:43:31;;;;;;;2.38;2.28;;;;;;;;;;5078086;28;20231;-63
2023/06/09 11:46:02;;;;;;;1.88;1.88;;;;;;;;;;5078749;28;20226;-63
2023/06/09 11:48:29;;;;;;;1.90;1.90;;;;;;;;;;5070379;28;20206;-63
2023/06/09 11:50:56;;;;;;;1.83;1.80;;;;;;;;;;5067903;28;20751;-64
2023/06/09 11:53:25;;;;;;;2.28;2.08;;;;;;;;;;5076766;28;20744;-63
2023/06/09 11:55:59;;;;;;;1.80;1.80;;;;;;;;;;5083275;28;20263;-64
2023/06/09 11:58:26;;;;;;;2.10;2.00;;;;;;;;;;5086534;28;20679;-63
2023/06/09 12:00:55;;;;;;;2.17;2.17;;;;;;;;;;5084690;28;20596;-64
2023/06/09 12:03:23;;;;;;;2.42;2.33;;;;;;;;;;5075129;28;20288;-62
2023/06/09 12:05:50;;;;;;;2.30;2.10;;;;;;;;;;5077155;28;20673;-62
2023/06/09 12:08:18;;;;;;;2.65;2.55;;;;;;;;;;5084590;28;20622;-63
2023/06/09 12:10:45;;;;;;;2.10;2.00;;;;;;;;;;5080015;28;20213;-63
2023/06/09 12:13:16;;;;;;;2.17;2.10;;;;;;;;;;5080625;28;20199;-63
2023/06/09 12:15:45;;;;;;;2.00;1.98;;;;;;;;;;5076918;28;20301;-64
2023/06/09 12:18:12;;;;;;;2.30;2.20;;;;;;;;;;5068740;28;20763;-64
2023/06/09 12:20:41;;;;;;;2.20;2.13;;;;;;;;;;5086603;28;20345;-63
2023/06/09 12:23:12;;;;;;;2.40;2.30;;;;;;;;;;5080115;28;20222;-64
2023/06/09 12:25:46;;;;;;;2.83;2.72;;;;;;;;;;5077776;28;20673;-62
2023/06/09 12:28:16;;;;;;;2.80;2.70;;;;;;;;;;5077533;28;20202;-62
2023/06/09 12:30:47;;;;;;;2.30;2.22;;;;;;;;;;5086605;28;20234;-63
2023/06/09 12:33:14;;;;;;;2.70;2.55;;;;;;;;;;5070732;28;20586;-64
2023/06/09 12:35:42;;;;;;;3.17;2.90;;;;;;;;;;5070653;28;20214;-62
2023/06/09 12:38:15;;;;;;;2.08;2.08;;;;;;;;;;5070468;28;20210;-62
2023/06/09 12:40:46;;;;;;;2.78;2.58;;;;;;;;;;5070414;28;20203;-62
2023/06/09 12:43:13;;;;;;;2.65;2.55;;;;;;;;;;5070304;28;20314;-62
2023/06/09 12:45:43;;;;;;;2.20;2.17;;;;;;;;;;5081650;28;20210;-64
2023/06/09 12:48:11;;;;;;;2.65;2.55;;;;;;;;;;5078090;28;20317;-64
2023/06/09 12:50:38;;;;;;;2.97;2.67;;;;;;;;;;5073641;28;20202;-62
2023/06/09 12:53:07;;;;;;;2.50;2.40;;;;;;;;;;5072255;28;20210;-65
2023/06/09 12:55:35;;;;;;;2.83;2.75;;;;;;;;;;5088793;28;20306;-61
2023/06/09 12:58:02;;;;;;;2.33;2.28;;;;;;;;;;5090277;28;20220;-63
2023/06/09 13:00:29;;;;;;;2.55;2.45;;;;;;;;;;5077232;28;20203;-63
2023/06/09 13:02:58;;;;;;;2.90;2.80;;;;;;;;;;5087534;28;20741;-63
2023/06/09 13:05:30;;;;;;;3.25;3.13;;;;;;;;;;5089901;28;20247;-63
2023/06/09 13:07:57;;;;;;;2.60;2.50;;;;;;;;;;5088910;28;20271;-63
2023/06/09 13:10:24;;;;;;;3.00;2.80;;;;;;;;;;5089605;28;20263;-64
2023/06/09 13:12:51;;;;;;;2.13;2.13;;;;;;;;;;5086053;28;20217;-61
2023/06/09 13:15:18;;;;;;;3.45;2.78;;;;;;;;;;5089384;28;20293;-62
2023/06/09 13:17:45;;;;;;;2.38;2.28;;;;;;;;;;5090207;28;20210;-62
2023/06/09 13:20:14;;;;;;;2.92;2.45;;;;;;;;;;5088107;28;20293;-64
2023/06/09 13:22:41;;;;;;;3.55;2.70;;;;;;;;;;5089678;28;20211;-63
2023/06/09 13:25:09;;;;;;;3.00;2.70;;;;;;;;;;5105024;28;20246;-63
2023/06/09 13:27:36;;;;;;;2.63;2.53;;;;;;;;;;5089428;28;20321;-63
2023/06/09 13:30:04;;;;;;;3.05;2.88;;;;;;;;;;5087958;28;20681;-62
2023/06/09 13:32:31;;;;;;;2.90;2.80;;;;;;;;;;5089630;28;20219;-64
2023/06/09 13:34:58;;;;;;;2.75;2.65;;;;;;;;;;5088237;28;20206;-65
2023/06/09 13:37:26;;;;;;;2.75;2.55;;;;;;;;;;5069683;28;20207;-64
2023/06/09 13:39:53;;;;;;;5.25;2.65;;;;;;;;;;5079765;28;20210;-64
2023/06/09 13:42:20;;;;;;;2.70;2.60;;;;;;;;;;5070357;28;20912;-60
2023/06/09 13:44:47;;;;;;;3.53;2.63;;;;;;;;;;5087864;28;20202;-64
2023/06/09 13:47:14;;;;;;;2.50;2.40;;;;;;;;;;5086746;28;20222;-66
2023/06/09 13:49:43;;;;;;;2.45;2.40;;;;;;;;;;5080031;28;20215;-61
2023/06/09 13:52:10;;;;;;;2.50;2.40;;;;;;;;;;5083282;28;20206;-60
2023/06/09 13:54:38;;;;;;;2.70;2.50;;;;;;;;;;5077820;28;20207;-60
2023/06/09 13:57:06;;;;;;;2.05;1.98;;;;;;;;;;5069538;28;20215;-62
2023/06/09 13:59:33;;;;;;;2.30;2.20;;;;;;;;;;5089351;28;20206;-60
2023/06/09 14:02:00;;;;;;;2.25;2.25;;;;;;;;;;5076457;28;20945;-61
2023/06/09 14:04:27;;;;;;;2.42;2.33;;;;;;;;;;5069097;28;20217;-62
2023/06/09 14:06:54;;;;;;;2.30;2.30;;;;;;;;;;5083768;28;20234;-61
2023/06/09 14:09:21;;;;;;;2.60;2.42;;;;;;;;;;5082657;28;20334;-63
2023/06/09 14:11:50;;;;;;;2.20;2.10;;;;;;;;;;5076982;28;20676;-61
2023/06/09 14:14:17;;;;;;;2.25;2.25;;;;;;;;;;5088894;28;20283;-62
2023/06/09 14:16:45;;;;;;;4.80;2.20;;;;;;;;;;5087563;28;20728;-62
2023/06/09 14:19:12;;;;;;;2.47;2.38;;;;;;;;;;5071012;28;20202;-61
2023/06/09 14:21:40;;;;;;;4.20;1.70;;;;;;;;;;5087653;28;20726;-61
2023/06/09 14:24:07;;;;;;;2.08;2.00;;;;;;;;;;5088424;28;20214;-61
2023/06/09 14:26:34;;;;;;;2.33;2.20;;;;;;;;;;5081820;28;20222;-61
2023/06/09 14:29:03;;;;;;;2.08;1.98;;;;;;;;;;5068208;28;20211;-60
2023/06/09 14:31:30;;;;;;;2.17;2.10;;;;;;;;;;5067794;28;20218;-61
2023/06/09 14:33:57;;;;;;;2.70;2.58;;;;;;;;;;5067589;28;20628;-60
2023/06/09 14:36:24;;;;;;;2.33;2.22;;;;;;;;;;5068192;28;20211;-61
2023/06/09 14:38:51;;;;;;;2.50;2.40;;;;;;;;;;5068050;28;20207;-61
2023/06/09 14:41:18;;;;;;;2.20;2.20;;;;;;;;;;5068095;28;20226;-61
2023/06/09 14:43:45;;;;;;;2.28;2.25;;;;;;;;;;5071997;28;20299;-61
2023/06/09 14:46:14;;;;;;;2.42;2.33;;;;;;;;;;5065459;28;20260;-61
2023/06/09 14:48:41;;;;;;;3.05;2.47;;;;;;;;;;5067840;28;20211;-61
2023/06/09 14:51:08;;;;;;;3.35;2.38;;;;;;;;;;5067761;28;20207;-61